Abeytas, New Mexico
Current Conditions -  °F | °C
As of 4:55 AM on Thursday 27 Nov 2014 (Local Time) from KE80 Reporting Station
Clear Clear  
Wind Chill: -5°   Ceiling: Unl
Heat Index: -1°   Visibility: 10mi
Dew Point: -7°   Wind: 8mph
Humidity: 62%   Direction: 320°NW
Pressure: 30.44"   Gusts: NA
Location:  34.4828°N, 106.804°W
Report Text: KE80 271155Z AUTO 32007KT 10SM CLR M01/M07 A3044 RMK AO2 T10071072 10044 21018
Loading
Personal Weather Stations






























Interactive Weather Map New forecast layout! Learn more

10-Day Weather Forecast

Advertisements
Track Severe Weather on mobile